createdAt,value
2023-01-19T00:00:27.746Z,-0.63
2023-01-19T00:02:54.920Z,-0.63
2023-01-19T00:05:21.579Z,-0.66
2023-01-19T00:07:48.022Z,-0.65
2023-01-19T00:10:14.436Z,-0.65
2023-01-19T00:12:40.860Z,-0.64
2023-01-19T00:15:08.032Z,-0.65
2023-01-19T00:17:34.438Z,-0.64
2023-01-19T00:20:00.850Z,-0.65
2023-01-19T00:22:27.261Z,-0.66
2023-01-19T00:24:53.683Z,-0.70
2023-01-19T00:27:20.100Z,-0.72
2023-01-19T00:29:46.577Z,-0.73
2023-01-19T00:32:13.002Z,-0.78
2023-01-19T00:34:42.596Z,-0.82
2023-01-19T00:37:09.618Z,-0.86
2023-01-19T00:39:36.030Z,-0.87
2023-01-19T00:42:20.869Z,-0.87
2023-01-19T00:44:47.284Z,-0.84
2023-01-19T00:47:13.678Z,-0.84
2023-01-19T00:49:40.137Z,-0.82
2023-01-19T00:52:06.557Z,-0.79
2023-01-19T00:54:33.000Z,-0.77
2023-01-19T00:56:59.445Z,-0.75
2023-01-19T00:59:25.868Z,-0.73
2023-01-19T01:01:52.415Z,-0.71
2023-01-19T01:04:18.973Z,-0.70
2023-01-19T01:06:45.428Z,-0.69
2023-01-19T01:09:12.053Z,-0.68
2023-01-19T01:11:39.940Z,-0.67
2023-01-19T01:14:06.439Z,-0.65
2023-01-19T01:16:32.968Z,-0.63
2023-01-19T01:18:59.523Z,-0.62
2023-01-19T01:21:25.973Z,-0.61
2023-01-19T01:23:52.385Z,-0.62
2023-01-19T01:26:18.794Z,-0.63
2023-01-19T01:28:45.229Z,-0.65
2023-01-19T01:31:11.684Z,-0.66
2023-01-19T01:33:40.653Z,-0.65
2023-01-19T01:36:08.928Z,-0.67
2023-01-19T01:38:35.361Z,-0.65
2023-01-19T01:41:01.789Z,-0.63
2023-01-19T01:43:42.695Z,-0.64
2023-01-19T01:46:09.330Z,-0.65
2023-01-19T01:48:36.509Z,-0.64
2023-01-19T01:51:24.749Z,-0.63
2023-01-19T01:54:12.083Z,-0.64
2023-01-19T01:56:44.656Z,-0.63
2023-01-19T01:59:18.040Z,-0.63
2023-01-19T02:02:03.124Z,-0.62
2023-01-19T02:04:30.123Z,-0.63
2023-01-19T02:07:15.133Z,-0.62
2023-01-19T02:10:00.142Z,-0.62
2023-01-19T02:12:45.918Z,-0.60
2023-01-19T02:15:17.725Z,-0.63
2023-01-19T02:17:44.327Z,-0.62
2023-01-19T02:20:11.255Z,-0.63
2023-01-19T02:22:45.584Z,-0.64
2023-01-19T02:25:12.115Z,-0.62
2023-01-19T02:27:39.496Z,-0.60
2023-01-19T02:30:07.057Z,-0.60
2023-01-19T02:32:33.595Z,-0.58
2023-01-19T02:35:00.063Z,-0.58
2023-01-19T02:37:26.647Z,-0.56
2023-01-19T02:39:56.024Z,-0.53
2023-01-19T02:42:44.452Z,-0.53
2023-01-19T02:45:12.674Z,-0.52
2023-01-19T02:47:49.782Z,-0.52
2023-01-19T02:50:41.790Z,-0.50
2023-01-19T02:53:45.973Z,-0.50
2023-01-19T02:56:36.294Z,-0.50
2023-01-19T02:59:37.132Z,-0.49
2023-01-19T03:02:23.991Z,-0.51
2023-01-19T03:05:26.119Z,-0.52
2023-01-19T03:08:15.704Z,-0.52
2023-01-19T03:10:54.489Z,-0.50
2023-01-19T03:13:42.707Z,-0.49
2023-01-19T03:16:12.181Z,-0.50
2023-01-19T03:18:42.701Z,-0.50
2023-01-19T03:21:10.323Z,-0.49
2023-01-19T03:23:38.816Z,-0.47
2023-01-19T03:26:05.984Z,-0.47
2023-01-19T03:28:33.573Z,-0.44
2023-01-19T03:31:05.433Z,-0.42
2023-01-19T03:33:33.025Z,-0.39
2023-01-19T03:36:10.489Z,-0.39
2023-01-19T03:38:38.071Z,-0.37
2023-01-19T03:41:08.223Z,-0.36
2023-01-19T03:43:35.607Z,-0.35
2023-01-19T03:46:04.104Z,-0.33
2023-01-19T03:48:32.371Z,-0.31
2023-01-19T03:51:03.620Z,-0.30
2023-01-19T03:53:30.022Z,-0.29
2023-01-19T03:55:57.003Z,-0.29
2023-01-19T03:58:23.487Z,-0.27
2023-01-19T04:00:50.012Z,-0.28
2023-01-19T04:03:18.150Z,-0.30
2023-01-19T04:05:44.608Z,-0.30
2023-01-19T04:08:11.884Z,-0.31
2023-01-19T04:10:38.848Z,-0.30
2023-01-19T04:13:05.635Z,-0.32
2023-01-19T04:15:32.624Z,-0.33
2023-01-19T04:18:00.588Z,-0.32
2023-01-19T04:20:28.172Z,-0.33
2023-01-19T04:22:56.068Z,-0.32
2023-01-19T04:25:22.478Z,-0.31
2023-01-19T04:27:52.275Z,-0.32
2023-01-19T04:30:19.050Z,-0.31
2023-01-19T04:32:48.484Z,-0.32
2023-01-19T04:35:14.980Z,-0.33
2023-01-19T04:37:41.429Z,-0.34
2023-01-19T04:40:08.524Z,-0.34
2023-01-19T04:42:34.964Z,-0.34
2023-01-19T04:45:01.358Z,-0.34
2023-01-19T04:47:27.775Z,-0.35
2023-01-19T04:49:54.223Z,-0.38
2023-01-19T04:52:20.644Z,-0.38
2023-01-19T04:54:47.665Z,-0.36
2023-01-19T04:57:14.107Z,-0.36
2023-01-19T04:59:40.556Z,-0.38
2023-01-19T05:02:07.182Z,-0.38
2023-01-19T05:04:33.721Z,-0.36
2023-01-19T05:07:00.114Z,-0.35
2023-01-19T05:09:27.277Z,-0.34
2023-01-19T05:11:53.764Z,-0.32
2023-01-19T05:14:20.259Z,-0.31
2023-01-19T05:16:46.677Z,-0.30
2023-01-19T05:19:13.133Z,-0.28
2023-01-19T05:21:39.562Z,-0.28
2023-01-19T05:24:06.302Z,-0.30
2023-01-19T05:26:32.815Z,-0.26
2023-01-19T05:28:59.221Z,-0.24
2023-01-19T05:31:25.782Z,-0.25
2023-01-19T05:33:52.249Z,-0.25
2023-01-19T05:36:18.651Z,-0.23
2023-01-19T05:38:45.075Z,-0.22
2023-01-19T05:41:11.468Z,-0.21
2023-01-19T05:43:37.909Z,-0.21
2023-01-19T05:46:05.347Z,-0.22
2023-01-19T05:48:31.791Z,-0.21
2023-01-19T05:50:59.163Z,-0.21
2023-01-19T05:53:25.848Z,-0.21
2023-01-19T05:55:52.323Z,-0.24
2023-01-19T05:58:18.726Z,-0.21
2023-01-19T06:00:45.215Z,-0.20
2023-01-19T06:03:11.854Z,-0.19
2023-01-19T06:05:39.439Z,-0.19
2023-01-19T06:08:06.030Z,-0.18
2023-01-19T06:10:32.448Z,-0.17
2023-01-19T06:12:59.236Z,-0.16
2023-01-19T06:15:25.871Z,-0.13
2023-01-19T06:17:52.274Z,-0.08
2023-01-19T06:20:18.674Z,-0.06
2023-01-19T06:22:45.069Z,-0.06
2023-01-19T06:25:11.934Z,-0.04
2023-01-19T06:27:39.787Z,-0.03
2023-01-19T06:30:06.782Z,-0.02
2023-01-19T06:32:33.205Z,-0.02
2023-01-19T06:34:59.610Z,-0.01
2023-01-19T06:37:27.256Z,0.02
2023-01-19T06:39:53.668Z,0.00
2023-01-19T06:42:20.096Z,0.03
2023-01-19T06:44:47.994Z,0.05
2023-01-19T06:47:16.375Z,0.06
2023-01-19T06:49:43.271Z,0.07
2023-01-19T06:52:11.440Z,0.05
2023-01-19T06:54:37.840Z,0.02
2023-01-19T06:57:04.459Z,0.02
2023-01-19T06:59:31.704Z,0.00
2023-01-19T07:01:59.012Z,-0.02
2023-01-19T07:04:25.597Z,-0.03
2023-01-19T07:06:51.995Z,-0.02
2023-01-19T07:09:20.335Z,0.00
2023-01-19T07:11:47.268Z,0.00
2023-01-19T07:14:14.011Z,0.00
2023-01-19T07:16:40.534Z,0.02
2023-01-19T07:19:10.605Z,0.01
2023-01-19T07:21:37.133Z,0.01
2023-01-19T07:24:03.629Z,-0.01
2023-01-19T07:26:30.826Z,0.03
2023-01-19T07:28:57.240Z,0.05
2023-01-19T07:31:23.747Z,0.10
2023-01-19T07:33:50.183Z,0.10
2023-01-19T07:36:16.579Z,0.12
2023-01-19T07:38:43.015Z,0.16
2023-01-19T07:41:10.224Z,0.17
2023-01-19T07:43:36.670Z,0.20
2023-01-19T07:46:05.514Z,0.21
2023-01-19T07:48:32.016Z,0.23
2023-01-19T07:51:05.359Z,0.25
2023-01-19T07:53:32.287Z,0.27
2023-01-19T07:55:58.752Z,0.32
2023-01-19T07:58:26.397Z,0.37
2023-01-19T08:00:53.323Z,0.39
2023-01-19T08:03:20.226Z,0.43
2023-01-19T08:05:50.307Z,0.48
2023-01-19T08:08:16.740Z,0.49
2023-01-19T08:10:43.135Z,0.52
2023-01-19T08:13:09.579Z,0.57
2023-01-19T08:15:35.984Z,0.62
2023-01-19T08:18:05.644Z,0.66
2023-01-19T08:20:33.169Z,0.69
2023-01-19T08:23:00.253Z,0.73
2023-01-19T08:25:32.399Z,0.75
2023-01-19T08:27:58.934Z,0.82
2023-01-19T08:30:26.784Z,0.86
2023-01-19T08:32:54.591Z,0.88
2023-01-19T08:35:22.062Z,0.95
2023-01-19T08:37:48.470Z,1.02
2023-01-19T08:40:14.975Z,1.07
2023-01-19T08:42:41.396Z,1.14
2023-01-19T08:45:09.237Z,1.19
2023-01-19T08:47:35.708Z,1.25
2023-01-19T08:50:02.251Z,1.31
2023-01-19T08:52:29.334Z,1.38
2023-01-19T08:54:55.844Z,1.45
2023-01-19T08:57:22.259Z,1.53
2023-01-19T08:59:48.707Z,1.59
2023-01-19T09:02:15.236Z,1.65
2023-01-19T09:04:41.692Z,1.72
2023-01-19T09:07:08.107Z,1.80
2023-01-19T09:09:37.756Z,1.88
2023-01-19T09:12:04.350Z,1.92
2023-01-19T09:14:30.808Z,2.00
2023-01-19T09:16:57.326Z,2.04
2023-01-19T09:19:23.740Z,2.09
2023-01-19T09:21:50.922Z,2.18
2023-01-19T09:24:17.306Z,2.22
2023-01-19T09:26:43.754Z,2.30
2023-01-19T09:29:10.181Z,2.30
2023-01-19T09:31:37.336Z,2.36
2023-01-19T09:34:03.755Z,2.39
2023-01-19T09:36:30.267Z,2.41
2023-01-19T09:38:56.692Z,2.50
2023-01-19T09:41:25.006Z,2.57
2023-01-19T09:44:00.134Z,2.63
2023-01-19T09:46:39.621Z,2.66
2023-01-19T09:49:13.315Z,2.72
2023-01-19T09:51:43.674Z,2.71
2023-01-19T09:54:17.260Z,2.74
2023-01-19T09:56:45.223Z,2.83
2023-01-19T09:59:17.422Z,2.85
2023-01-19T10:01:55.954Z,2.91
2023-01-19T10:04:35.208Z,2.95
2023-01-19T10:07:17.058Z,2.96
2023-01-19T10:10:05.799Z,2.96
2023-01-19T10:13:10.614Z,2.97
2023-01-19T10:15:45.998Z,3.06
2023-01-19T10:18:31.419Z,3.12
2023-01-19T10:21:43.323Z,3.10
2023-01-19T10:24:45.693Z,3.12
2023-01-19T10:27:20.782Z,3.14
2023-01-19T10:29:47.285Z,3.13
2023-01-19T10:32:21.195Z,3.15
2023-01-19T10:34:49.164Z,3.14
2023-01-19T10:37:30.597Z,3.19
2023-01-19T10:40:22.993Z,3.19
2023-01-19T10:42:49.492Z,3.19
2023-01-19T10:45:17.411Z,3.21
2023-01-19T10:47:44.618Z,3.26
2023-01-19T10:50:34.761Z,3.30
2023-01-19T10:53:06.070Z,3.35
2023-01-19T10:55:41.416Z,3.38
2023-01-19T10:58:30.464Z,3.46
2023-01-19T11:01:13.433Z,3.50
2023-01-19T11:03:40.020Z,3.40
2023-01-19T11:06:15.570Z,3.53
2023-01-19T11:08:46.683Z,3.56
2023-01-19T11:11:13.263Z,3.56
2023-01-19T11:13:40.530Z,3.56
2023-01-19T11:16:16.114Z,3.62
2023-01-19T11:18:43.180Z,3.60
2023-01-19T11:21:14.625Z,3.71
2023-01-19T11:23:45.361Z,3.71
2023-01-19T11:26:16.753Z,3.71
2023-01-19T11:28:47.800Z,3.77
2023-01-19T11:31:14.346Z,3.78
2023-01-19T11:33:49.664Z,3.75
2023-01-19T11:36:22.147Z,3.80
2023-01-19T11:38:54.953Z,3.81
2023-01-19T11:41:26.729Z,3.89
2023-01-19T11:43:55.164Z,3.97
2023-01-19T11:46:24.252Z,4.03
2023-01-19T11:49:02.108Z,4.07
2023-01-19T11:51:34.648Z,4.12
2023-01-19T11:54:03.072Z,4.14
2023-01-19T11:56:29.546Z,4.16
2023-01-19T11:58:56.349Z,4.16
2023-01-19T12:01:24.815Z,4.17
2023-01-19T12:04:02.701Z,4.24
2023-01-19T12:06:44.751Z,4.25
2023-01-19T12:09:17.316Z,4.23
2023-01-19T12:11:51.036Z,4.24
2023-01-19T12:14:22.885Z,4.23
2023-01-19T12:16:51.328Z,4.23
2023-01-19T12:19:22.418Z,4.22
2023-01-19T12:21:49.253Z,4.23
2023-01-19T12:24:29.733Z,4.26
2023-01-19T12:26:57.619Z,4.25
2023-01-19T12:29:26.376Z,4.27
2023-01-19T12:32:19.092Z,4.26
2023-01-19T12:34:49.974Z,4.21
2023-01-19T12:37:31.999Z,4.24
2023-01-19T12:40:00.859Z,4.22
2023-01-19T12:42:27.397Z,4.21
2023-01-19T12:45:14.007Z,4.21
2023-01-19T12:47:40.554Z,4.25
2023-01-19T12:50:14.095Z,4.24
2023-01-19T12:52:47.829Z,4.25
2023-01-19T12:55:14.187Z,4.30
2023-01-19T12:57:41.375Z,4.36
2023-01-19T13:00:22.938Z,4.36
2023-01-19T13:02:52.484Z,4.32
2023-01-19T13:05:24.979Z,4.35
2023-01-19T13:08:04.834Z,4.34
2023-01-19T13:10:59.321Z,4.32
2023-01-19T13:13:28.680Z,4.28
2023-01-19T13:16:21.149Z,4.31
2023-01-19T13:18:51.580Z,4.25
2023-01-19T13:21:44.683Z,4.25
2023-01-19T13:24:16.477Z,4.23
2023-01-19T13:27:03.516Z,4.18
2023-01-19T13:29:35.419Z,4.13
2023-01-19T13:32:11.741Z,4.14
2023-01-19T13:34:45.615Z,4.14
2023-01-19T13:37:17.771Z,4.13
2023-01-19T13:39:46.959Z,4.14
2023-01-19T13:42:17.223Z,4.10
2023-01-19T13:44:52.307Z,4.16
2023-01-19T13:47:22.503Z,4.18
2023-01-19T13:49:51.537Z,4.18
2023-01-19T13:52:23.185Z,4.17
2023-01-19T13:54:53.580Z,4.19
2023-01-19T13:57:31.571Z,4.18
2023-01-19T14:00:25.483Z,4.21
2023-01-19T14:02:56.192Z,4.23
2023-01-19T14:05:36.808Z,4.22
2023-01-19T14:08:14.938Z,4.22
2023-01-19T14:10:53.549Z,4.19
2023-01-19T14:13:44.731Z,4.19
2023-01-19T14:16:16.059Z,4.18
2023-01-19T14:18:42.842Z,4.18
2023-01-19T14:21:16.237Z,4.18
2023-01-19T14:24:05.577Z,4.18
2023-01-19T14:26:46.970Z,4.18
2023-01-19T14:29:29.307Z,4.19
2023-01-19T14:32:01.686Z,4.19
2023-01-19T14:34:31.932Z,4.20
2023-01-19T14:36:58.897Z,4.19
2023-01-19T14:39:28.087Z,4.20
2023-01-19T14:41:55.876Z,4.20
2023-01-19T14:44:37.660Z,4.24
2023-01-19T14:47:05.788Z,4.26
2023-01-19T14:49:40.513Z,4.26
2023-01-19T14:52:22.618Z,4.28
2023-01-19T14:54:49.519Z,4.30
2023-01-19T14:57:18.615Z,4.31
2023-01-19T14:59:48.450Z,4.32
2023-01-19T15:02:15.325Z,4.32
2023-01-19T15:04:42.065Z,4.33
2023-01-19T15:07:16.730Z,4.32
2023-01-19T15:09:43.205Z,4.33
2023-01-19T15:12:12.023Z,4.34
2023-01-19T15:14:42.027Z,4.36
2023-01-19T15:17:17.507Z,4.35
2023-01-19T15:19:44.990Z,4.37
2023-01-19T15:22:12.953Z,4.37
2023-01-19T15:24:40.930Z,4.37
2023-01-19T15:27:13.439Z,4.38
2023-01-19T15:29:40.399Z,4.37
2023-01-19T15:32:12.147Z,4.36
2023-01-19T15:34:38.610Z,4.35
2023-01-19T15:37:05.031Z,4.34
2023-01-19T15:39:32.145Z,4.32
2023-01-19T15:41:58.613Z,4.30
2023-01-19T15:44:25.081Z,4.29
2023-01-19T15:46:53.853Z,4.26
2023-01-19T15:49:21.051Z,4.24
2023-01-19T15:51:47.487Z,4.28
2023-01-19T15:54:16.763Z,4.26
2023-01-19T15:56:43.212Z,4.23
2023-01-19T15:59:09.641Z,4.23
2023-01-19T16:01:36.273Z,4.20
2023-01-19T16:04:05.429Z,4.20
2023-01-19T16:06:32.504Z,4.20
2023-01-19T16:09:01.256Z,4.21
2023-01-19T16:11:32.862Z,4.22
2023-01-19T16:13:59.580Z,4.23
2023-01-19T16:16:28.141Z,4.22
2023-01-19T16:18:55.157Z,4.23
2023-01-19T16:21:22.176Z,4.24
2023-01-19T16:23:48.706Z,4.22
2023-01-19T16:26:30.766Z,4.21
2023-01-19T16:29:01.767Z,4.20
2023-01-19T16:31:29.095Z,4.19
2023-01-19T16:33:55.777Z,4.19
2023-01-19T16:36:26.374Z,4.16
2023-01-19T16:39:10.921Z,4.13
2023-01-19T16:41:37.543Z,4.11
2023-01-19T16:44:04.334Z,4.10
2023-01-19T16:46:36.314Z,4.10
2023-01-19T16:49:09.710Z,4.08
2023-01-19T16:51:36.486Z,4.03
2023-01-19T16:54:03.372Z,4.00
2023-01-19T16:56:29.984Z,4.00
2023-01-19T16:58:57.598Z,3.96
2023-01-19T17:01:25.771Z,3.95
2023-01-19T17:03:52.693Z,3.93
2023-01-19T17:06:22.875Z,3.91
2023-01-19T17:08:49.828Z,3.93
2023-01-19T17:11:22.691Z,3.92
2023-01-19T17:13:54.616Z,3.92
2023-01-19T17:16:22.225Z,3.92
2023-01-19T17:18:48.829Z,3.88
2023-01-19T17:21:18.013Z,3.87
2023-01-19T17:23:48.762Z,3.85
2023-01-19T17:26:16.404Z,3.83
2023-01-19T17:28:43.540Z,3.80
2023-01-19T17:31:12.861Z,3.76
2023-01-19T17:33:40.007Z,3.73
2023-01-19T17:36:09.164Z,3.73
2023-01-19T17:38:36.471Z,3.73
2023-01-19T17:41:37.392Z,3.76
2023-01-19T17:44:05.399Z,3.76
2023-01-19T17:46:35.776Z,3.73
2023-01-19T17:49:03.711Z,3.72
2023-01-19T17:51:31.149Z,3.74
2023-01-19T17:53:58.557Z,3.74
2023-01-19T17:56:29.459Z,3.72
2023-01-19T17:58:56.993Z,3.71
2023-01-19T18:01:26.431Z,3.71
2023-01-19T18:03:53.172Z,3.71
2023-01-19T18:06:20.114Z,3.70
2023-01-19T18:08:47.567Z,3.69
2023-01-19T18:11:15.553Z,3.68
2023-01-19T18:13:43.991Z,3.66
2023-01-19T18:16:12.841Z,3.64
2023-01-19T18:18:40.544Z,3.61
2023-01-19T18:21:09.505Z,3.59
2023-01-19T18:23:36.550Z,3.59
2023-01-19T18:26:08.846Z,3.57
2023-01-19T18:28:35.697Z,3.58
2023-01-19T18:31:03.182Z,3.55
2023-01-19T18:33:31.408Z,3.52
2023-01-19T18:35:57.986Z,3.53
2023-01-19T18:38:24.536Z,3.54
2023-01-19T18:41:01.285Z,3.51
2023-01-19T18:43:27.787Z,3.52
2023-01-19T18:45:54.319Z,3.51
2023-01-19T18:48:21.111Z,3.47
2023-01-19T18:50:47.912Z,3.46
2023-01-19T18:53:14.388Z,3.46
2023-01-19T18:55:40.973Z,3.44
2023-01-19T18:58:08.819Z,3.42
2023-01-19T19:00:35.419Z,3.41
2023-01-19T19:03:01.975Z,3.41
2023-01-19T19:05:28.580Z,3.39
2023-01-19T19:07:55.116Z,3.38
2023-01-19T19:10:21.754Z,3.36
2023-01-19T19:12:48.316Z,3.35
2023-01-19T19:15:14.847Z,3.32
2023-01-19T19:17:41.305Z,3.32
2023-01-19T19:20:08.536Z,3.28
2023-01-19T19:22:35.096Z,3.26
2023-01-19T19:25:01.640Z,3.23
2023-01-19T19:27:28.188Z,3.23
2023-01-19T19:29:54.858Z,3.20
2023-01-19T19:32:21.540Z,3.18
2023-01-19T19:34:52.752Z,3.19
2023-01-19T19:37:22.551Z,3.19
2023-01-19T19:39:49.097Z,3.16
2023-01-19T19:42:15.606Z,3.13
2023-01-19T19:44:42.162Z,3.13
2023-01-19T19:47:08.715Z,3.11
2023-01-19T19:49:35.835Z,3.10
2023-01-19T19:52:02.405Z,3.10
2023-01-19T19:54:29.038Z,3.13
2023-01-19T19:56:55.730Z,3.14
2023-01-19T19:59:22.280Z,3.14
2023-01-19T20:01:49.945Z,3.14
2023-01-19T20:04:20.037Z,3.13
2023-01-19T20:06:48.304Z,3.13
2023-01-19T20:09:16.207Z,3.12
2023-01-19T20:11:44.336Z,3.14
2023-01-19T20:14:12.133Z,3.13
2023-01-19T20:16:39.132Z,3.13
2023-01-19T20:19:06.317Z,3.11
2023-01-19T20:21:35.981Z,3.07
2023-01-19T20:24:08.578Z,3.05
2023-01-19T20:26:37.049Z,3.05
2023-01-19T20:29:06.885Z,3.02
2023-01-19T20:31:36.250Z,3.00
2023-01-19T20:34:05.595Z,2.98
2023-01-19T20:36:32.555Z,2.96
2023-01-19T20:38:59.527Z,2.91
2023-01-19T20:41:27.203Z,2.89
2023-01-19T20:43:55.016Z,2.89
2023-01-19T20:46:21.572Z,2.89
2023-01-19T20:48:52.946Z,2.89
2023-01-19T20:51:20.392Z,2.86
2023-01-19T20:53:47.963Z,2.83
2023-01-19T20:56:15.080Z,2.79
2023-01-19T20:58:42.275Z,2.78
2023-01-19T21:01:13.238Z,2.78
2023-01-19T21:03:40.072Z,2.75
2023-01-19T21:06:06.942Z,2.73
2023-01-19T21:08:33.559Z,2.71
2023-01-19T21:11:00.234Z,2.70
2023-01-19T21:13:26.898Z,2.70
2023-01-19T21:15:53.542Z,2.65
2023-01-19T21:18:20.091Z,2.64
2023-01-19T21:20:49.571Z,2.64
2023-01-19T21:23:16.100Z,2.65
2023-01-19T21:25:53.567Z,2.64
2023-01-19T21:28:20.327Z,2.61
2023-01-19T21:30:46.992Z,2.58
2023-01-19T21:33:13.773Z,2.59
2023-01-19T21:35:40.395Z,2.55
2023-01-19T21:38:06.994Z,2.53
2023-01-19T21:40:33.552Z,2.51
2023-01-19T21:43:00.216Z,2.50
2023-01-19T21:45:26.813Z,2.51
2023-01-19T21:47:53.348Z,2.52
2023-01-19T21:50:19.829Z,2.53
2023-01-19T21:52:46.405Z,2.52
2023-01-19T21:55:13.087Z,2.51
2023-01-19T21:57:39.675Z,2.50
2023-01-19T22:00:10.267Z,2.51
2023-01-19T22:02:39.090Z,2.48
2023-01-19T22:05:06.623Z,2.45
2023-01-19T22:07:33.202Z,2.46
2023-01-19T22:09:59.761Z,2.41
2023-01-19T22:12:26.383Z,2.41
2023-01-19T22:14:53.207Z,2.40
2023-01-19T22:17:19.725Z,2.40
2023-01-19T22:19:46.292Z,2.39
2023-01-19T22:22:12.813Z,2.38
2023-01-19T22:24:39.523Z,2.38
2023-01-19T22:27:06.151Z,2.35
2023-01-19T22:29:32.691Z,2.31
2023-01-19T22:31:59.226Z,2.31
2023-01-19T22:34:25.781Z,2.30
2023-01-19T22:36:52.302Z,2.29
2023-01-19T22:39:18.822Z,2.29
2023-01-19T22:41:46.739Z,2.27
2023-01-19T22:44:15.795Z,2.24
2023-01-19T22:46:42.299Z,2.22
2023-01-19T22:49:10.983Z,2.19
2023-01-19T22:51:37.553Z,2.18
2023-01-19T22:54:04.577Z,2.15
2023-01-19T22:56:33.150Z,2.16
2023-01-19T22:59:00.108Z,2.15
2023-01-19T23:01:33.655Z,2.17
2023-01-19T23:04:01.726Z,2.16
2023-01-19T23:06:30.517Z,2.14
2023-01-19T23:09:02.644Z,2.15
2023-01-19T23:11:37.337Z,2.12
2023-01-19T23:14:05.079Z,2.12
2023-01-19T23:16:31.591Z,2.14
2023-01-19T23:18:58.537Z,2.13
2023-01-19T23:21:27.677Z,2.12
2023-01-19T23:23:55.662Z,2.13
2023-01-19T23:26:23.517Z,2.12
2023-01-19T23:29:02.495Z,2.10
2023-01-19T23:31:31.189Z,2.07
2023-01-19T23:34:00.183Z,2.11
2023-01-19T23:36:28.143Z,2.11
2023-01-19T23:38:59.884Z,2.09
2023-01-19T23:41:28.866Z,2.07
2023-01-19T23:43:55.361Z,2.10
2023-01-19T23:46:21.932Z,2.07
2023-01-19T23:48:48.841Z,2.06
2023-01-19T23:51:21.060Z,2.03
2023-01-19T23:53:48.031Z,2.02
2023-01-19T23:56:26.201Z,2.00
2023-01-19T23:58:54.847Z,1.99
